sensor_id;sensor_type;location;lat;lon;timestamp;P1;durP1;ratioP1;P2;durP2;ratioP2
67762;SDS011;54566;52.022;5.582;2023-07-13T00:01:57;12.98;;;2.00;;
67762;SDS011;54566;52.022;5.582;2023-07-13T00:04:24;13.02;;;2.80;;
67762;SDS011;54566;52.022;5.582;2023-07-13T00:06:51;6.23;;;1.80;;
67762;SDS011;54566;52.022;5.582;2023-07-13T00:09:17;13.20;;;2.10;;
67762;SDS011;54566;52.022;5.582;2023-07-13T00:11:44;11.40;;;2.17;;
67762;SDS011;54566;52.022;5.582;2023-07-13T00:16:38;17.35;;;1.98;;
67762;SDS011;54566;52.022;5.582;2023-07-13T00:19:08;10.23;;;2.00;;
67762;SDS011;54566;52.022;5.582;2023-07-13T00:21:34;11.30;;;2.05;;
67762;SDS011;54566;52.022;5.582;2023-07-13T00:24:00;6.85;;;1.80;;
67762;SDS011;54566;52.022;5.582;2023-07-13T00:26:26;17.52;;;2.00;;
67762;SDS011;54566;52.022;5.582;2023-07-13T00:28:52;10.05;;;2.33;;
67762;SDS011;54566;52.022;5.582;2023-07-13T00:31:18;8.88;;;2.38;;
67762;SDS011;54566;52.022;5.582;2023-07-13T00:33:44;9.32;;;1.65;;
67762;SDS011;54566;52.022;5.582;2023-07-13T00:36:11;10.93;;;2.42;;
67762;SDS011;54566;52.022;5.582;2023-07-13T00:38:38;10.13;;;2.17;;
67762;SDS011;54566;52.022;5.582;2023-07-13T00:41:04;9.13;;;2.53;;
67762;SDS011;54566;52.022;5.582;2023-07-13T00:43:30;6.85;;;1.90;;
67762;SDS011;54566;52.022;5.582;2023-07-13T00:48:31;7.32;;;1.70;;
67762;SDS011;54566;52.022;5.582;2023-07-13T00:50:58;9.60;;;1.70;;
67762;SDS011;54566;52.022;5.582;2023-07-13T00:53:26;11.25;;;2.10;;
67762;SDS011;54566;52.022;5.582;2023-07-13T00:55:53;13.25;;;2.17;;
67762;SDS011;54566;52.022;5.582;2023-07-13T00:58:20;15.55;;;2.30;;
67762;SDS011;54566;52.022;5.582;2023-07-13T01:00:46;15.77;;;2.08;;
67762;SDS011;54566;52.022;5.582;2023-07-13T01:03:15;7.32;;;1.90;;
67762;SDS011;54566;52.022;5.582;2023-07-13T01:05:41;8.05;;;2.28;;
67762;SDS011;54566;52.022;5.582;2023-07-13T01:08:08;9.32;;;2.30;;
67762;SDS011;54566;52.022;5.582;2023-07-13T01:10:34;9.40;;;2.45;;
67762;SDS011;54566;52.022;5.582;2023-07-13T01:13:04;10.48;;;2.47;;
67762;SDS011;54566;52.022;5.582;2023-07-13T01:18:03;10.55;;;2.00;;
67762;SDS011;54566;52.022;5.582;2023-07-13T01:20:29;8.05;;;1.98;;
67762;SDS011;54566;52.022;5.582;2023-07-13T01:22:56;9.88;;;2.38;;
67762;SDS011;54566;52.022;5.582;2023-07-13T01:25:24;13.38;;;2.08;;
67762;SDS011;54566;52.022;5.582;2023-07-13T01:27:50;6.25;;;1.70;;
67762;SDS011;54566;52.022;5.582;2023-07-13T01:30:16;10.15;;;2.28;;
67762;SDS011;54566;52.022;5.582;2023-07-13T01:32:42;8.00;;;1.85;;
67762;SDS011;54566;52.022;5.582;2023-07-13T01:35:08;12.32;;;2.00;;
67762;SDS011;54566;52.022;5.582;2023-07-13T01:37:38;10.70;;;2.35;;
67762;SDS011;54566;52.022;5.582;2023-07-13T01:40:04;8.18;;;1.70;;
67762;SDS011;54566;52.022;5.582;2023-07-13T01:42:30;7.65;;;2.00;;
67762;SDS011;54566;52.022;5.582;2023-07-13T01:44:56;10.60;;;2.10;;
67762;SDS011;54566;52.022;5.582;2023-07-13T01:47:23;11.90;;;2.00;;
67762;SDS011;54566;52.022;5.582;2023-07-13T01:49:51;11.80;;;2.47;;
67762;SDS011;54566;52.022;5.582;2023-07-13T01:52:17;11.52;;;2.20;;
67762;SDS011;54566;52.022;5.582;2023-07-13T01:54:43;8.55;;;1.75;;
67762;SDS011;54566;52.022;5.582;2023-07-13T01:57:09;6.90;;;1.85;;
67762;SDS011;54566;52.022;5.582;2023-07-13T01:59:35;7.97;;;2.00;;
67762;SDS011;54566;52.022;5.582;2023-07-13T02:02:01;9.27;;;2.17;;
67762;SDS011;54566;52.022;5.582;2023-07-13T02:04:27;13.88;;;2.08;;
67762;SDS011;54566;52.022;5.582;2023-07-13T02:06:53;11.68;;;2.13;;
67762;SDS011;54566;52.022;5.582;2023-07-13T02:09:20;8.02;;;1.98;;
67762;SDS011;54566;52.022;5.582;2023-07-13T02:11:47;5.65;;;2.03;;
67762;SDS011;54566;52.022;5.582;2023-07-13T02:14:13;6.60;;;2.10;;
67762;SDS011;54566;52.022;5.582;2023-07-13T02:16:40;12.55;;;2.45;;
67762;SDS011;54566;52.022;5.582;2023-07-13T02:19:07;10.90;;;2.58;;
67762;SDS011;54566;52.022;5.582;2023-07-13T02:21:33;9.35;;;2.55;;
67762;SDS011;54566;52.022;5.582;2023-07-13T02:23:59;12.38;;;2.30;;
67762;SDS011;54566;52.022;5.582;2023-07-13T02:26:26;13.65;;;2.50;;
67762;SDS011;54566;52.022;5.582;2023-07-13T02:28:52;13.98;;;2.58;;
67762;SDS011;54566;52.022;5.582;2023-07-13T02:31:18;10.63;;;2.72;;
67762;SDS011;54566;52.022;5.582;2023-07-13T02:33:44;10.13;;;2.28;;
67762;SDS011;54566;52.022;5.582;2023-07-13T02:36:10;12.75;;;2.45;;
67762;SDS011;54566;52.022;5.582;2023-07-13T02:38:39;12.32;;;2.83;;
67762;SDS011;54566;52.022;5.582;2023-07-13T02:41:06;11.48;;;2.40;;
67762;SDS011;54566;52.022;5.582;2023-07-13T02:43:33;7.72;;;2.67;;
67762;SDS011;54566;52.022;5.582;2023-07-13T02:46:00;13.85;;;2.65;;
67762;SDS011;54566;52.022;5.582;2023-07-13T02:48:32;12.32;;;2.70;;
67762;SDS011;54566;52.022;5.582;2023-07-13T02:50:59;13.05;;;2.47;;
67762;SDS011;54566;52.022;5.582;2023-07-13T02:53:25;18.27;;;2.53;;
67762;SDS011;54566;52.022;5.582;2023-07-13T02:55:51;15.82;;;2.70;;
67762;SDS011;54566;52.022;5.582;2023-07-13T02:58:17;17.98;;;2.60;;
67762;SDS011;54566;52.022;5.582;2023-07-13T03:00:44;8.93;;;2.33;;
67762;SDS011;54566;52.022;5.582;2023-07-13T03:03:11;12.25;;;2.90;;
67762;SDS011;54566;52.022;5.582;2023-07-13T03:05:40;17.03;;;2.73;;
67762;SDS011;54566;52.022;5.582;2023-07-13T03:10:33;14.20;;;3.05;;
67762;SDS011;54566;52.022;5.582;2023-07-13T03:12:59;15.48;;;2.75;;
67762;SDS011;54566;52.022;5.582;2023-07-13T03:15:25;17.42;;;3.30;;
67762;SDS011;54566;52.022;5.582;2023-07-13T03:17:51;19.17;;;3.00;;
67762;SDS011;54566;52.022;5.582;2023-07-13T03:20:17;15.65;;;3.55;;
67762;SDS011;54566;52.022;5.582;2023-07-13T03:22:43;13.52;;;3.55;;
67762;SDS011;54566;52.022;5.582;2023-07-13T03:25:09;12.73;;;2.70;;
67762;SDS011;54566;52.022;5.582;2023-07-13T03:27:36;14.18;;;3.42;;
67762;SDS011;54566;52.022;5.582;2023-07-13T03:30:03;14.38;;;3.67;;
67762;SDS011;54566;52.022;5.582;2023-07-13T03:32:29;16.77;;;2.63;;
67762;SDS011;54566;52.022;5.582;2023-07-13T03:34:55;15.18;;;2.90;;
67762;SDS011;54566;52.022;5.582;2023-07-13T03:37:21;19.13;;;3.10;;
67762;SDS011;54566;52.022;5.582;2023-07-13T03:39:47;14.60;;;3.80;;
67762;SDS011;54566;52.022;5.582;2023-07-13T03:42:14;13.23;;;3.42;;
67762;SDS011;54566;52.022;5.582;2023-07-13T03:44:40;13.68;;;3.10;;
67762;SDS011;54566;52.022;5.582;2023-07-13T03:47:06;16.25;;;3.75;;
67762;SDS011;54566;52.022;5.582;2023-07-13T03:49:34;20.70;;;3.20;;
67762;SDS011;54566;52.022;5.582;2023-07-13T03:52:00;12.43;;;3.17;;
67762;SDS011;54566;52.022;5.582;2023-07-13T03:54:26;11.70;;;3.08;;
67762;SDS011;54566;52.022;5.582;2023-07-13T03:56:52;18.17;;;3.35;;
67762;SDS011;54566;52.022;5.582;2023-07-13T03:59:18;15.45;;;3.42;;
67762;SDS011;54566;52.022;5.582;2023-07-13T04:01:44;15.38;;;3.40;;
67762;SDS011;54566;52.022;5.582;2023-07-13T04:04:10;14.35;;;3.53;;
67762;SDS011;54566;52.022;5.582;2023-07-13T04:06:36;16.63;;;3.85;;
67762;SDS011;54566;52.022;5.582;2023-07-13T04:09:03;17.00;;;3.75;;
67762;SDS011;54566;52.022;5.582;2023-07-13T04:11:33;29.70;;;4.10;;
67762;SDS011;54566;52.022;5.582;2023-07-13T04:14:01;22.98;;;4.40;;
67762;SDS011;54566;52.022;5.582;2023-07-13T04:16:27;19.25;;;4.20;;
67762;SDS011;54566;52.022;5.582;2023-07-13T04:18:54;15.75;;;4.18;;
67762;SDS011;54566;52.022;5.582;2023-07-13T04:21:24;25.50;;;4.15;;
67762;SDS011;54566;52.022;5.582;2023-07-13T04:23:50;16.67;;;4.20;;
67762;SDS011;54566;52.022;5.582;2023-07-13T04:26:16;13.32;;;3.75;;
67762;SDS011;54566;52.022;5.582;2023-07-13T04:28:46;18.30;;;4.00;;
67762;SDS011;54566;52.022;5.582;2023-07-13T04:31:12;20.05;;;4.15;;
67762;SDS011;54566;52.022;5.582;2023-07-13T04:33:38;22.77;;;5.03;;
67762;SDS011;54566;52.022;5.582;2023-07-13T04:36:04;20.63;;;4.60;;
67762;SDS011;54566;52.022;5.582;2023-07-13T04:38:30;21.92;;;4.90;;
67762;SDS011;54566;52.022;5.582;2023-07-13T04:40:58;24.10;;;4.53;;
67762;SDS011;54566;52.022;5.582;2023-07-13T04:43:24;16.98;;;4.60;;
67762;SDS011;54566;52.022;5.582;2023-07-13T04:45:51;23.73;;;4.30;;
67762;SDS011;54566;52.022;5.582;2023-07-13T04:48:17;24.23;;;4.75;;
67762;SDS011;54566;52.022;5.582;2023-07-13T04:50:43;19.90;;;4.18;;
67762;SDS011;54566;52.022;5.582;2023-07-13T04:53:09;23.63;;;4.63;;
67762;SDS011;54566;52.022;5.582;2023-07-13T04:55:36;26.98;;;5.03;;
67762;SDS011;54566;52.022;5.582;2023-07-13T04:58:03;32.00;;;5.78;;
67762;SDS011;54566;52.022;5.582;2023-07-13T05:00:30;28.38;;;4.95;;
67762;SDS011;54566;52.022;5.582;2023-07-13T05:02:56;26.77;;;5.40;;
67762;SDS011;54566;52.022;5.582;2023-07-13T05:05:23;19.08;;;4.60;;
67762;SDS011;54566;52.022;5.582;2023-07-13T05:07:49;15.20;;;4.35;;
67762;SDS011;54566;52.022;5.582;2023-07-13T05:10:15;23.13;;;4.85;;
67762;SDS011;54566;52.022;5.582;2023-07-13T05:12:41;24.13;;;4.93;;
67762;SDS011;54566;52.022;5.582;2023-07-13T05:15:08;18.80;;;5.00;;
67762;SDS011;54566;52.022;5.582;2023-07-13T05:17:34;22.10;;;4.93;;
67762;SDS011;54566;52.022;5.582;2023-07-13T05:20:00;27.98;;;5.32;;
67762;SDS011;54566;52.022;5.582;2023-07-13T05:22:27;32.97;;;5.72;;
67762;SDS011;54566;52.022;5.582;2023-07-13T05:25:03;26.95;;;5.53;;
67762;SDS011;54566;52.022;5.582;2023-07-13T05:27:29;21.77;;;5.45;;
67762;SDS011;54566;52.022;5.582;2023-07-13T05:30:03;30.58;;;6.95;;
67762;SDS011;54566;52.022;5.582;2023-07-13T05:36:04;27.80;;;6.03;;
67762;SDS011;54566;52.022;5.582;2023-07-13T05:38:32;26.60;;;6.40;;
67762;SDS011;54566;52.022;5.582;2023-07-13T05:40:58;29.45;;;6.07;;
67762;SDS011;54566;52.022;5.582;2023-07-13T05:43:24;35.30;;;7.53;;
67762;SDS011;54566;52.022;5.582;2023-07-13T05:46:31;35.47;;;7.10;;
67762;SDS011;54566;52.022;5.582;2023-07-13T05:52:23;24.45;;;7.00;;
67762;SDS011;54566;52.022;5.582;2023-07-13T05:55:21;26.08;;;7.60;;
67762;SDS011;54566;52.022;5.582;2023-07-13T05:57:48;26.15;;;7.63;;
67762;SDS011;54566;52.022;5.582;2023-07-13T06:00:14;25.55;;;7.78;;
67762;SDS011;54566;52.022;5.582;2023-07-13T06:02:40;31.77;;;7.78;;
67762;SDS011;54566;52.022;5.582;2023-07-13T06:05:06;29.95;;;8.73;;
67762;SDS011;54566;52.022;5.582;2023-07-13T06:07:32;29.83;;;8.60;;
67762;SDS011;54566;52.022;5.582;2023-07-13T06:49:10;35.90;;;10.68;;
67762;SDS011;54566;52.022;5.582;2023-07-13T06:51:49;28.42;;;10.98;;
67762;SDS011;54566;52.022;5.582;2023-07-13T06:54:15;35.10;;;10.82;;
67762;SDS011;54566;52.022;5.582;2023-07-13T06:56:41;31.63;;;11.00;;
67762;SDS011;54566;52.022;5.582;2023-07-13T06:59:07;36.70;;;10.95;;
67762;SDS011;54566;52.022;5.582;2023-07-13T07:01:36;33.55;;;10.38;;
67762;SDS011;54566;52.022;5.582;2023-07-13T07:04:05;35.55;;;11.15;;
67762;SDS011;54566;52.022;5.582;2023-07-13T07:06:32;33.47;;;10.63;;
67762;SDS011;54566;52.022;5.582;2023-07-13T07:08:58;30.17;;;10.50;;
67762;SDS011;54566;52.022;5.582;2023-07-13T07:11:59;37.28;;;10.57;;
67762;SDS011;54566;52.022;5.582;2023-07-13T07:14:47;30.10;;;10.35;;
67762;SDS011;54566;52.022;5.582;2023-07-13T07:17:38;42.45;;;10.95;;
67762;SDS011;54566;52.022;5.582;2023-07-13T07:20:13;34.88;;;10.85;;
67762;SDS011;54566;52.022;5.582;2023-07-13T07:22:50;29.85;;;10.05;;
67762;SDS011;54566;52.022;5.582;2023-07-13T07:25:26;27.92;;;9.90;;
67762;SDS011;54566;52.022;5.582;2023-07-13T07:28:00;32.78;;;10.32;;
67762;SDS011;54566;52.022;5.582;2023-07-13T07:30:26;29.65;;;10.07;;
67762;SDS011;54566;52.022;5.582;2023-07-13T07:32:52;33.95;;;10.05;;
67762;SDS011;54566;52.022;5.582;2023-07-13T07:35:18;30.85;;;9.77;;
67762;SDS011;54566;52.022;5.582;2023-07-13T07:37:44;29.13;;;10.07;;
67762;SDS011;54566;52.022;5.582;2023-07-13T07:40:10;26.20;;;9.75;;
67762;SDS011;54566;52.022;5.582;2023-07-13T07:42:36;25.17;;;9.43;;
67762;SDS011;54566;52.022;5.582;2023-07-13T07:45:02;23.42;;;10.15;;
67762;SDS011;54566;52.022;5.582;2023-07-13T07:47:29;18.98;;;9.23;;
67762;SDS011;54566;52.022;5.582;2023-07-13T07:49:55;29.92;;;9.95;;
67762;SDS011;54566;52.022;5.582;2023-07-13T07:52:21;22.02;;;8.95;;
67762;SDS011;54566;52.022;5.582;2023-07-13T07:54:47;30.65;;;9.85;;
67762;SDS011;54566;52.022;5.582;2023-07-13T07:57:18;35.92;;;9.98;;
67762;SDS011;54566;52.022;5.582;2023-07-13T08:00:00;30.27;;;8.80;;
67762;SDS011;54566;52.022;5.582;2023-07-13T08:02:32;27.95;;;9.70;;
67762;SDS011;54566;52.022;5.582;2023-07-13T08:05:09;26.67;;;9.15;;
67762;SDS011;54566;52.022;5.582;2023-07-13T08:07:38;25.77;;;9.20;;
67762;SDS011;54566;52.022;5.582;2023-07-13T08:10:08;21.80;;;8.27;;
67762;SDS011;54566;52.022;5.582;2023-07-13T08:12:36;25.15;;;8.68;;
67762;SDS011;54566;52.022;5.582;2023-07-13T08:15:03;26.17;;;9.18;;
67762;SDS011;54566;52.022;5.582;2023-07-13T08:17:31;27.52;;;8.35;;
67762;SDS011;54566;52.022;5.582;2023-07-13T08:19:57;28.75;;;8.68;;
67762;SDS011;54566;52.022;5.582;2023-07-13T08:22:26;20.63;;;6.88;;
67762;SDS011;54566;52.022;5.582;2023-07-13T08:24:52;25.23;;;7.18;;
67762;SDS011;54566;52.022;5.582;2023-07-13T08:27:25;24.63;;;7.95;;
67762;SDS011;54566;52.022;5.582;2023-07-13T08:29:52;24.77;;;7.50;;
67762;SDS011;54566;52.022;5.582;2023-07-13T08:32:21;23.40;;;6.93;;
67762;SDS011;54566;52.022;5.582;2023-07-13T08:34:47;23.38;;;6.47;;
67762;SDS011;54566;52.022;5.582;2023-07-13T08:37:15;25.60;;;6.50;;
67762;SDS011;54566;52.022;5.582;2023-07-13T08:39:42;17.90;;;5.32;;
67762;SDS011;54566;52.022;5.582;2023-07-13T08:47:37;26.58;;;5.25;;
67762;SDS011;54566;52.022;5.582;2023-07-13T08:50:04;9.43;;;3.70;;
67762;SDS011;54566;52.022;5.582;2023-07-13T08:52:40;11.77;;;3.05;;
67762;SDS011;54566;52.022;5.582;2023-07-13T08:55:27;19.20;;;4.22;;
67762;SDS011;54566;52.022;5.582;2023-07-13T09:03:21;11.23;;;3.00;;
67762;SDS011;54566;52.022;5.582;2023-07-13T09:05:51;10.55;;;2.47;;
67762;SDS011;54566;52.022;5.582;2023-07-13T09:09:07;8.93;;;3.10;;
67762;SDS011;54566;52.022;5.582;2023-07-13T09:16:16;14.98;;;3.67;;
67762;SDS011;54566;52.022;5.582;2023-07-13T09:18:44;11.70;;;2.67;;
67762;SDS011;54566;52.022;5.582;2023-07-13T09:23:40;7.00;;;2.22;;
67762;SDS011;54566;52.022;5.582;2023-07-13T09:26:09;8.13;;;2.30;;
67762;SDS011;54566;52.022;5.582;2023-07-13T09:28:47;14.65;;;2.33;;
67762;SDS011;54566;52.022;5.582;2023-07-13T09:31:26;13.15;;;3.00;;
67762;SDS011;54566;52.022;5.582;2023-07-13T09:33:54;10.73;;;2.60;;
67762;SDS011;54566;52.022;5.582;2023-07-13T09:36:23;9.95;;;3.45;;
67762;SDS011;54566;52.022;5.582;2023-07-13T09:38:54;14.20;;;3.08;;
67762;SDS011;54566;52.022;5.582;2023-07-13T09:41:32;12.48;;;2.50;;
67762;SDS011;54566;52.022;5.582;2023-07-13T09:44:11;8.23;;;2.83;;
67762;SDS011;54566;52.022;5.582;2023-07-13T09:46:45;11.05;;;3.30;;
67762;SDS011;54566;52.022;5.582;2023-07-13T09:49:12;13.52;;;2.60;;
67762;SDS011;54566;52.022;5.582;2023-07-13T09:51:40;10.55;;;3.00;;
67762;SDS011;54566;52.022;5.582;2023-07-13T09:54:15;17.35;;;3.80;;
67762;SDS011;54566;52.022;5.582;2023-07-13T09:56:43;16.25;;;3.88;;
67762;SDS011;54566;52.022;5.582;2023-07-13T09:59:23;14.40;;;3.40;;
67762;SDS011;54566;52.022;5.582;2023-07-13T10:01:50;19.05;;;4.40;;
67762;SDS011;54566;52.022;5.582;2023-07-13T10:04:19;15.23;;;3.70;;
67762;SDS011;54566;52.022;5.582;2023-07-13T10:06:46;16.08;;;3.35;;
67762;SDS011;54566;52.022;5.582;2023-07-13T10:09:18;13.15;;;3.58;;
67762;SDS011;54566;52.022;5.582;2023-07-13T10:11:46;15.00;;;3.40;;
67762;SDS011;54566;52.022;5.582;2023-07-13T10:14:18;12.23;;;3.10;;
67762;SDS011;54566;52.022;5.582;2023-07-13T10:16:48;15.63;;;4.13;;
67762;SDS011;54566;52.022;5.582;2023-07-13T10:19:21;11.13;;;3.33;;
67762;SDS011;54566;52.022;5.582;2023-07-13T10:21:55;17.83;;;3.88;;
67762;SDS011;54566;52.022;5.582;2023-07-13T10:24:29;9.52;;;3.80;;
67762;SDS011;54566;52.022;5.582;2023-07-13T10:29:24;9.43;;;2.90;;
67762;SDS011;54566;52.022;5.582;2023-07-13T10:31:51;14.25;;;3.20;;
67762;SDS011;54566;52.022;5.582;2023-07-13T10:34:18;7.00;;;2.60;;
67762;SDS011;54566;52.022;5.582;2023-07-13T10:36:45;8.25;;;2.97;;
67762;SDS011;54566;52.022;5.582;2023-07-13T10:39:22;9.85;;;2.53;;
67762;SDS011;54566;52.022;5.582;2023-07-13T10:41:59;11.30;;;3.03;;
67762;SDS011;54566;52.022;5.582;2023-07-13T10:44:30;8.43;;;2.30;;
67762;SDS011;54566;52.022;5.582;2023-07-13T10:47:06;5.93;;;2.33;;
67762;SDS011;54566;52.022;5.582;2023-07-13T10:49:34;9.13;;;2.72;;
67762;SDS011;54566;52.022;5.582;2023-07-13T10:52:01;9.27;;;2.20;;
67762;SDS011;54566;52.022;5.582;2023-07-13T10:54:32;7.32;;;2.40;;
67762;SDS011;54566;52.022;5.582;2023-07-13T10:57:14;7.78;;;2.17;;
67762;SDS011;54566;52.022;5.582;2023-07-13T10:59:41;7.35;;;2.10;;
67762;SDS011;54566;52.022;5.582;2023-07-13T11:04:43;9.90;;;2.83;;
67762;SDS011;54566;52.022;5.582;2023-07-13T11:09:38;8.68;;;2.97;;
67762;SDS011;54566;52.022;5.582;2023-07-13T11:20:10;8.63;;;2.75;;
67762;SDS011;54566;52.022;5.582;2023-07-13T11:22:43;4.75;;;2.33;;
67762;SDS011;54566;52.022;5.582;2023-07-13T11:30:40;5.88;;;2.60;;
67762;SDS011;54566;52.022;5.582;2023-07-13T11:35:51;10.38;;;2.83;;
67762;SDS011;54566;52.022;5.582;2023-07-13T11:41:01;7.35;;;2.25;;
67762;SDS011;54566;52.022;5.582;2023-07-13T11:43:28;12.13;;;2.30;;
67762;SDS011;54566;52.022;5.582;2023-07-13T11:45:55;6.75;;;2.28;;
67762;SDS011;54566;52.022;5.582;2023-07-13T11:48:28;9.57;;;2.70;;
67762;SDS011;54566;52.022;5.582;2023-07-13T11:50:58;7.32;;;2.60;;
67762;SDS011;54566;52.022;5.582;2023-07-13T11:53:26;9.95;;;2.40;;
67762;SDS011;54566;52.022;5.582;2023-07-13T11:55:52;10.70;;;2.53;;
67762;SDS011;54566;52.022;5.582;2023-07-13T11:58:19;5.63;;;2.40;;
67762;SDS011;54566;52.022;5.582;2023-07-13T12:00:47;34.83;;;5.40;;
67762;SDS011;54566;52.022;5.582;2023-07-13T12:03:13;8.93;;;3.38;;
67762;SDS011;54566;52.022;5.582;2023-07-13T12:05:57;11.35;;;3.55;;
67762;SDS011;54566;52.022;5.582;2023-07-13T12:08:23;10.25;;;3.03;;
67762;SDS011;54566;52.022;5.582;2023-07-13T12:10:55;19.70;;;2.95;;
67762;SDS011;54566;52.022;5.582;2023-07-13T12:13:22;6.70;;;3.28;;
67762;SDS011;54566;52.022;5.582;2023-07-13T12:15:48;7.20;;;2.92;;
67762;SDS011;54566;52.022;5.582;2023-07-13T12:18:23;9.20;;;2.70;;
67762;SDS011;54566;52.022;5.582;2023-07-13T12:20:55;5.90;;;2.28;;
67762;SDS011;54566;52.022;5.582;2023-07-13T12:23:23;7.72;;;2.38;;
67762;SDS011;54566;52.022;5.582;2023-07-13T12:25:50;7.80;;;2.67;;
67762;SDS011;54566;52.022;5.582;2023-07-13T12:28:20;6.68;;;2.38;;
67762;SDS011;54566;52.022;5.582;2023-07-13T12:30:48;6.97;;;2.30;;
67762;SDS011;54566;52.022;5.582;2023-07-13T12:33:14;6.20;;;2.30;;
67762;SDS011;54566;52.022;5.582;2023-07-13T12:38:09;8.13;;;2.60;;
67762;SDS011;54566;52.022;5.582;2023-07-13T12:40:36;6.28;;;2.70;;
67762;SDS011;54566;52.022;5.582;2023-07-13T12:43:02;5.70;;;2.28;;
67762;SDS011;54566;52.022;5.582;2023-07-13T12:45:32;4.65;;;2.20;;
67762;SDS011;54566;52.022;5.582;2023-07-13T12:48:37;6.20;;;2.45;;
67762;SDS011;54566;52.022;5.582;2023-07-13T12:50:51;5.95;;;2.35;;
67762;SDS011;54566;52.022;5.582;2023-07-13T12:53:20;5.07;;;1.90;;
67762;SDS011;54566;52.022;5.582;2023-07-13T12:55:50;7.43;;;2.25;;
67762;SDS011;54566;52.022;5.582;2023-07-13T12:58:37;8.35;;;2.05;;
67762;SDS011;54566;52.022;5.582;2023-07-13T13:01:04;8.18;;;2.10;;
67762;SDS011;54566;52.022;5.582;2023-07-13T13:03:31;10.03;;;2.17;;
67762;SDS011;54566;52.022;5.582;2023-07-13T13:06:04;6.63;;;2.10;;
67762;SDS011;54566;52.022;5.582;2023-07-13T13:08:34;6.72;;;2.33;;
67762;SDS011;54566;52.022;5.582;2023-07-13T13:11:01;6.70;;;2.08;;
67762;SDS011;54566;52.022;5.582;2023-07-13T13:13:27;4.57;;;2.05;;
67762;SDS011;54566;52.022;5.582;2023-07-13T13:15:53;6.45;;;2.28;;
67762;SDS011;54566;52.022;5.582;2023-07-13T13:18:20;9.25;;;2.20;;
67762;SDS011;54566;52.022;5.582;2023-07-13T13:20:47;6.72;;;2.08;;
67762;SDS011;54566;52.022;5.582;2023-07-13T13:23:14;6.22;;;2.13;;
67762;SDS011;54566;52.022;5.582;2023-07-13T13:25:43;6.38;;;2.22;;
67762;SDS011;54566;52.022;5.582;2023-07-13T13:28:13;5.50;;;2.05;;
67762;SDS011;54566;52.022;5.582;2023-07-13T13:30:41;6.55;;;1.98;;
67762;SDS011;54566;52.022;5.582;2023-07-13T13:33:09;5.25;;;1.70;;
67762;SDS011;54566;52.022;5.582;2023-07-13T13:35:37;5.10;;;2.30;;
67762;SDS011;54566;52.022;5.582;2023-07-13T13:38:12;5.85;;;2.20;;
67762;SDS011;54566;52.022;5.582;2023-07-13T13:40:43;8.82;;;1.98;;
67762;SDS011;54566;52.022;5.582;2023-07-13T13:43:23;5.13;;;2.03;;
67762;SDS011;54566;52.022;5.582;2023-07-13T13:45:53;4.90;;;2.13;;
67762;SDS011;54566;52.022;5.582;2023-07-13T13:48:23;8.75;;;2.25;;
67762;SDS011;54566;52.022;5.582;2023-07-13T13:50:55;6.35;;;2.13;;
67762;SDS011;54566;52.022;5.582;2023-07-13T13:53:21;4.60;;;2.15;;
67762;SDS011;54566;52.022;5.582;2023-07-13T13:55:48;6.37;;;2.03;;
67762;SDS011;54566;52.022;5.582;2023-07-13T13:58:17;6.80;;;2.25;;
67762;SDS011;54566;52.022;5.582;2023-07-13T14:00:46;12.23;;;2.10;;
67762;SDS011;54566;52.022;5.582;2023-07-13T14:03:22;5.20;;;2.13;;
67762;SDS011;54566;52.022;5.582;2023-07-13T14:05:51;5.10;;;2.10;;
67762;SDS011;54566;52.022;5.582;2023-07-13T14:08:19;9.00;;;2.20;;
67762;SDS011;54566;52.022;5.582;2023-07-13T14:10:47;5.40;;;2.30;;
67762;SDS011;54566;52.022;5.582;2023-07-13T14:13:17;4.50;;;1.73;;
67762;SDS011;54566;52.022;5.582;2023-07-13T14:15:44;6.15;;;1.80;;
67762;SDS011;54566;52.022;5.582;2023-07-13T14:18:11;3.63;;;2.00;;
67762;SDS011;54566;52.022;5.582;2023-07-13T14:20:45;5.30;;;1.83;;
67762;SDS011;54566;52.022;5.582;2023-07-13T14:23:12;5.33;;;2.47;;
67762;SDS011;54566;52.022;5.582;2023-07-13T14:25:41;4.18;;;2.08;;
67762;SDS011;54566;52.022;5.582;2023-07-13T14:30:47;7.03;;;2.30;;
67762;SDS011;54566;52.022;5.582;2023-07-13T14:33:13;5.35;;;2.30;;
67762;SDS011;54566;52.022;5.582;2023-07-13T14:35:39;8.27;;;2.08;;
67762;SDS011;54566;52.022;5.582;2023-07-13T14:40:33;6.47;;;1.92;;
67762;SDS011;54566;52.022;5.582;2023-07-13T14:42:59;3.67;;;2.00;;
67762;SDS011;54566;52.022;5.582;2023-07-13T14:45:27;8.10;;;1.90;;
67762;SDS011;54566;52.022;5.582;2023-07-13T14:47:54;5.93;;;2.13;;
67762;SDS011;54566;52.022;5.582;2023-07-13T14:50:30;4.68;;;1.83;;
67762;SDS011;54566;52.022;5.582;2023-07-13T14:53:01;5.03;;;1.83;;
67762;SDS011;54566;52.022;5.582;2023-07-13T14:55:27;3.97;;;1.75;;
67762;SDS011;54566;52.022;5.582;2023-07-13T15:04:04;3.58;;;1.85;;
67762;SDS011;54566;52.022;5.582;2023-07-13T15:06:51;6.63;;;2.20;;
67762;SDS011;54566;52.022;5.582;2023-07-13T15:09:20;3.78;;;1.85;;
67762;SDS011;54566;52.022;5.582;2023-07-13T15:11:46;6.00;;;1.90;;
67762;SDS011;54566;52.022;5.582;2023-07-13T15:19:55;5.93;;;1.85;;
67762;SDS011;54566;52.022;5.582;2023-07-13T15:22:32;3.83;;;1.80;;
67762;SDS011;54566;52.022;5.582;2023-07-13T15:24:58;5.57;;;2.05;;
67762;SDS011;54566;52.022;5.582;2023-07-13T15:27:25;5.50;;;2.10;;
67762;SDS011;54566;52.022;5.582;2023-07-13T15:29:53;5.43;;;1.90;;
67762;SDS011;54566;52.022;5.582;2023-07-13T15:32:19;6.78;;;1.98;;
67762;SDS011;54566;52.022;5.582;2023-07-13T15:34:46;6.68;;;1.98;;
67762;SDS011;54566;52.022;5.582;2023-07-13T15:37:15;4.25;;;1.73;;
67762;SDS011;54566;52.022;5.582;2023-07-13T15:39:42;6.70;;;1.95;;
67762;SDS011;54566;52.022;5.582;2023-07-13T15:42:13;5.05;;;2.20;;
67762;SDS011;54566;52.022;5.582;2023-07-13T15:44:39;4.88;;;2.15;;
67762;SDS011;54566;52.022;5.582;2023-07-13T15:50:39;4.50;;;1.60;;
67762;SDS011;54566;52.022;5.582;2023-07-13T15:53:09;3.40;;;1.98;;
67762;SDS011;54566;52.022;5.582;2023-07-13T15:59:01;3.38;;;1.65;;
67762;SDS011;54566;52.022;5.582;2023-07-13T16:01:28;6.60;;;1.88;;
67762;SDS011;54566;52.022;5.582;2023-07-13T16:03:58;3.63;;;1.50;;
67762;SDS011;54566;52.022;5.582;2023-07-13T16:06:28;5.40;;;1.65;;
67762;SDS011;54566;52.022;5.582;2023-07-13T16:08:55;4.82;;;1.70;;
67762;SDS011;54566;52.022;5.582;2023-07-13T16:11:25;3.63;;;1.70;;
67762;SDS011;54566;52.022;5.582;2023-07-13T16:13:52;7.63;;;2.15;;
67762;SDS011;54566;52.022;5.582;2023-07-13T16:16:20;2.72;;;1.70;;
67762;SDS011;54566;52.022;5.582;2023-07-13T16:18:50;9.60;;;2.45;;
67762;SDS011;54566;52.022;5.582;2023-07-13T16:21:16;4.90;;;1.58;;
67762;SDS011;54566;52.022;5.582;2023-07-13T16:23:42;2.42;;;1.42;;
67762;SDS011;54566;52.022;5.582;2023-07-13T16:26:16;6.95;;;1.77;;
67762;SDS011;54566;52.022;5.582;2023-07-13T16:28:45;4.10;;;1.58;;
67762;SDS011;54566;52.022;5.582;2023-07-13T16:31:12;3.30;;;1.75;;
67762;SDS011;54566;52.022;5.582;2023-07-13T16:33:39;3.75;;;1.58;;
67762;SDS011;54566;52.022;5.582;2023-07-13T16:36:09;6.32;;;1.60;;
67762;SDS011;54566;52.022;5.582;2023-07-13T16:38:36;3.75;;;1.55;;
67762;SDS011;54566;52.022;5.582;2023-07-13T16:41:02;3.90;;;1.75;;
67762;SDS011;54566;52.022;5.582;2023-07-13T16:43:34;5.82;;;1.90;;
67762;SDS011;54566;52.022;5.582;2023-07-13T16:46:00;3.88;;;1.48;;
67762;SDS011;54566;52.022;5.582;2023-07-13T16:48:28;4.28;;;1.67;;
67762;SDS011;54566;52.022;5.582;2023-07-13T16:50:55;3.87;;;1.60;;
67762;SDS011;54566;52.022;5.582;2023-07-13T16:53:23;5.22;;;1.55;;
67762;SDS011;54566;52.022;5.582;2023-07-13T16:55:50;8.45;;;1.90;;
67762;SDS011;54566;52.022;5.582;2023-07-13T16:58:16;6.90;;;1.90;;